sensor_id;sensor_type;location;lat;lon;timestamp;pressure;altitude;pressure_sealevel;temperature;humidity
17054;BME280;8643;48.824;11.422;2023-07-02T00:00:43;96310.22;;;16.91;100.00
17054;BME280;8643;48.824;11.422;2023-07-02T00:03:12;96305.81;;;16.82;100.00
17054;BME280;8643;48.824;11.422;2023-07-02T00:05:42;96311.41;;;16.93;100.00
17054;BME280;8643;48.824;11.422;2023-07-02T00:08:12;96301.16;;;17.01;100.00
17054;BME280;8643;48.824;11.422;2023-07-02T00:10:40;96310.22;;;16.91;100.00
17054;BME280;8643;48.824;11.422;2023-07-02T00:13:09;96301.53;;;16.96;100.00
17054;BME280;8643;48.824;11.422;2023-07-02T00:15:38;96298.28;;;16.83;100.00
17054;BME280;8643;48.824;11.422;2023-07-02T00:18:07;96307.00;;;16.85;100.00
17054;BME280;8643;48.824;11.422;2023-07-02T00:20:36;96306.16;;;16.74;100.00
17054;BME280;8643;48.824;11.422;2023-07-02T00:23:05;96300.97;;;16.68;100.00
17054;BME280;8643;48.824;11.422;2023-07-02T00:25:37;96299.41;;;16.67;100.00
17054;BME280;8643;48.824;11.422;2023-07-02T00:28:06;96304.94;;;16.64;100.00
17054;BME280;8643;48.824;11.422;2023-07-02T00:30:35;96306.03;;;16.52;100.00
17054;BME280;8643;48.824;11.422;2023-07-02T00:33:04;96301.25;;;16.45;100.00
17054;BME280;8643;48.824;11.422;2023-07-02T00:35:34;96306.34;;;16.36;100.00
17054;BME280;8643;48.824;11.422;2023-07-02T00:38:03;96304.75;;;16.31;100.00
17054;BME280;8643;48.824;11.422;2023-07-02T00:40:32;96306.19;;;16.15;100.00
17054;BME280;8643;48.824;11.422;2023-07-02T00:43:02;96302.97;;;16.05;100.00
17054;BME280;8643;48.824;11.422;2023-07-02T00:45:31;96312.16;;;16.17;100.00
17054;BME280;8643;48.824;11.422;2023-07-02T00:48:00;96310.19;;;16.21;100.00
17054;BME280;8643;48.824;11.422;2023-07-02T00:50:29;96315.44;;;16.37;100.00
17054;BME280;8643;48.824;11.422;2023-07-02T00:52:58;96309.91;;;16.40;100.00
17054;BME280;8643;48.824;11.422;2023-07-02T00:55:27;96314.66;;;16.36;100.00
17054;BME280;8643;48.824;11.422;2023-07-02T00:57:56;96311.53;;;16.45;100.00
17054;BME280;8643;48.824;11.422;2023-07-02T01:00:26;96316.97;;;16.30;100.00
17054;BME280;8643;48.824;11.422;2023-07-02T01:02:56;96311.34;;;16.20;100.00
17054;BME280;8643;48.824;11.422;2023-07-02T01:05:27;96312.53;;;16.19;100.00
17054;BME280;8643;48.824;11.422;2023-07-02T01:08:03;96310.88;;;16.07;100.00
17054;BME280;8643;48.824;11.422;2023-07-02T01:10:32;96318.75;;;16.08;100.00
17054;BME280;8643;48.824;11.422;2023-07-02T01:13:10;96318.84;;;16.16;100.00
17054;BME280;8643;48.824;11.422;2023-07-02T01:15:43;96328.00;;;16.27;100.00
17054;BME280;8643;48.824;11.422;2023-07-02T01:18:14;96324.88;;;16.32;100.00
17054;BME280;8643;48.824;11.422;2023-07-02T01:20:45;96328.09;;;16.45;100.00
17054;BME280;8643;48.824;11.422;2023-07-02T01:23:16;96338.78;;;16.50;100.00
17054;BME280;8643;48.824;11.422;2023-07-02T01:25:45;96330.13;;;16.52;100.00
17054;BME280;8643;48.824;11.422;2023-07-02T01:28:14;96324.31;;;16.71;100.00
17054;BME280;8643;48.824;11.422;2023-07-02T01:30:43;96329.38;;;16.62;100.00
17054;BME280;8643;48.824;11.422;2023-07-02T01:33:12;96331.84;;;16.78;100.00
17054;BME280;8643;48.824;11.422;2023-07-02T01:35:41;96337.84;;;16.87;100.00
17054;BME280;8643;48.824;11.422;2023-07-02T01:38:11;96340.09;;;16.71;100.00
17054;BME280;8643;48.824;11.422;2023-07-02T01:40:40;96336.03;;;16.50;100.00
17054;BME280;8643;48.824;11.422;2023-07-02T01:43:09;96346.22;;;16.39;100.00
17054;BME280;8643;48.824;11.422;2023-07-02T01:45:38;96342.66;;;16.38;100.00
17054;BME280;8643;48.824;11.422;2023-07-02T01:48:07;96335.94;;;16.39;100.00
17054;BME280;8643;48.824;11.422;2023-07-02T01:50:36;96334.75;;;16.33;100.00
17054;BME280;8643;48.824;11.422;2023-07-02T01:53:05;96338.25;;;16.26;100.00
17054;BME280;8643;48.824;11.422;2023-07-02T01:55:35;96334.66;;;16.22;100.00
17054;BME280;8643;48.824;11.422;2023-07-02T01:58:04;96336.56;;;16.15;100.00
17054;BME280;8643;48.824;11.422;2023-07-02T02:00:33;96331.41;;;16.09;100.00
17054;BME280;8643;48.824;11.422;2023-07-02T02:03:01;96317.94;;;16.01;100.00
17054;BME280;8643;48.824;11.422;2023-07-02T02:05:31;96342.53;;;16.17;100.00
17054;BME280;8643;48.824;11.422;2023-07-02T02:08:00;96335.53;;;16.37;100.00
17054;BME280;8643;48.824;11.422;2023-07-02T02:10:28;96347.47;;;16.48;100.00
17054;BME280;8643;48.824;11.422;2023-07-02T02:12:59;96345.16;;;16.54;100.00
17054;BME280;8643;48.824;11.422;2023-07-02T02:15:28;96350.25;;;16.56;100.00
17054;BME280;8643;48.824;11.422;2023-07-02T02:17:57;96354.53;;;16.42;100.00
17054;BME280;8643;48.824;11.422;2023-07-02T02:20:26;96358.41;;;16.30;100.00
17054;BME280;8643;48.824;11.422;2023-07-02T02:22:55;96347.75;;;16.33;100.00
17054;BME280;8643;48.824;11.422;2023-07-02T02:25:24;96340.19;;;16.26;100.00
17054;BME280;8643;48.824;11.422;2023-07-02T02:27:53;96341.81;;;16.27;100.00
17054;BME280;8643;48.824;11.422;2023-07-02T02:30:23;96351.63;;;16.24;100.00
17054;BME280;8643;48.824;11.422;2023-07-02T02:32:52;96339.69;;;16.09;100.00
17054;BME280;8643;48.824;11.422;2023-07-02T02:35:22;96342.31;;;15.91;100.00
17054;BME280;8643;48.824;11.422;2023-07-02T02:37:51;96334.34;;;15.83;100.00
17054;BME280;8643;48.824;11.422;2023-07-02T02:40:21;96339.44;;;15.81;100.00
17054;BME280;8643;48.824;11.422;2023-07-02T02:42:50;96342.53;;;15.75;100.00
17054;BME280;8643;48.824;11.422;2023-07-02T02:45:19;96349.34;;;15.85;100.00
17054;BME280;8643;48.824;11.422;2023-07-02T02:47:50;96355.69;;;15.89;100.00
17054;BME280;8643;48.824;11.422;2023-07-02T02:50:19;96354.84;;;15.82;100.00
17054;BME280;8643;48.824;11.422;2023-07-02T02:52:48;96350.91;;;15.83;100.00
17054;BME280;8643;48.824;11.422;2023-07-02T02:55:17;96341.50;;;15.87;100.00
17054;BME280;8643;48.824;11.422;2023-07-02T02:57:46;96337.66;;;15.99;100.00
17054;BME280;8643;48.824;11.422;2023-07-02T03:00:15;96341.25;;;16.07;100.00
17054;BME280;8643;48.824;11.422;2023-07-02T03:02:44;96336.59;;;16.18;100.00
17054;BME280;8643;48.824;11.422;2023-07-02T03:05:15;96333.03;;;16.18;100.00
17054;BME280;8643;48.824;11.422;2023-07-02T03:07:44;96343.19;;;16.03;100.00
17054;BME280;8643;48.824;11.422;2023-07-02T03:10:13;96345.13;;;15.99;100.00
17054;BME280;8643;48.824;11.422;2023-07-02T03:12:42;96352.22;;;15.96;100.00
17054;BME280;8643;48.824;11.422;2023-07-02T03:15:11;96353.41;;;15.99;100.00
17054;BME280;8643;48.824;11.422;2023-07-02T03:17:40;96351.81;;;15.94;100.00
17054;BME280;8643;48.824;11.422;2023-07-02T03:20:10;96353.75;;;15.93;100.00
17054;BME280;8643;48.824;11.422;2023-07-02T03:22:40;96350.91;;;15.83;100.00
17054;BME280;8643;48.824;11.422;2023-07-02T03:25:09;96355.63;;;15.82;100.00
17054;BME280;8643;48.824;11.422;2023-07-02T03:27:38;96367.34;;;15.72;100.00
17054;BME280;8643;48.824;11.422;2023-07-02T03:30:08;96375.13;;;15.63;100.00
17054;BME280;8643;48.824;11.422;2023-07-02T03:32:37;96371.78;;;15.46;100.00
17054;BME280;8643;48.824;11.422;2023-07-02T03:35:06;96373.19;;;15.29;100.00
17054;BME280;8643;48.824;11.422;2023-07-02T03:37:35;96375.41;;;15.16;100.00
17054;BME280;8643;48.824;11.422;2023-07-02T03:40:07;96394.25;;;15.11;100.00
17054;BME280;8643;48.824;11.422;2023-07-02T03:42:36;96394.16;;;15.03;100.00
17054;BME280;8643;48.824;11.422;2023-07-02T03:45:06;96390.97;;;15.01;100.00
17054;BME280;8643;48.824;11.422;2023-07-02T03:47:35;96383.81;;;14.97;100.00
17054;BME280;8643;48.824;11.422;2023-07-02T03:50:04;96389.38;;;15.00;100.00
17054;BME280;8643;48.824;11.422;2023-07-02T03:52:33;96389.41;;;15.04;100.00
17054;BME280;8643;48.824;11.422;2023-07-02T03:55:03;96394.28;;;15.14;100.00
17054;BME280;8643;48.824;11.422;2023-07-02T03:57:33;96389.75;;;15.29;100.00
17054;BME280;8643;48.824;11.422;2023-07-02T04:00:02;96385.31;;;15.55;100.00
17054;BME280;8643;48.824;11.422;2023-07-02T04:02:41;96393.22;;;15.56;100.00
17054;BME280;8643;48.824;11.422;2023-07-02T04:05:10;96395.28;;;15.67;100.00
17054;BME280;8643;48.824;11.422;2023-07-02T04:07:39;96394.91;;;15.68;100.00
17054;BME280;8643;48.824;11.422;2023-07-02T04:10:08;96394.06;;;15.64;100.00
17054;BME280;8643;48.824;11.422;2023-07-02T04:12:38;96405.91;;;15.65;100.00
17054;BME280;8643;48.824;11.422;2023-07-02T04:15:08;96405.38;;;15.52;100.00
17054;BME280;8643;48.824;11.422;2023-07-02T04:17:37;96404.56;;;15.51;100.00
17054;BME280;8643;48.824;11.422;2023-07-02T04:20:08;96406.69;;;15.65;100.00
17054;BME280;8643;48.824;11.422;2023-07-02T04:22:37;96412.28;;;15.72;100.00
17054;BME280;8643;48.824;11.422;2023-07-02T04:25:07;96411.19;;;15.77;100.00
17054;BME280;8643;48.824;11.422;2023-07-02T04:27:57;96421.34;;;15.69;100.00
17054;BME280;8643;48.824;11.422;2023-07-02T04:30:26;96417.78;;;15.72;100.00
17054;BME280;8643;48.824;11.422;2023-07-02T04:32:55;96414.38;;;15.79;100.00
17054;BME280;8643;48.824;11.422;2023-07-02T04:35:24;96416.59;;;15.70;100.00
17054;BME280;8643;48.824;11.422;2023-07-02T04:37:53;96419.19;;;15.55;100.00
17054;BME280;8643;48.824;11.422;2023-07-02T04:40:21;96430.25;;;15.55;100.00
17054;BME280;8643;48.824;11.422;2023-07-02T04:42:50;96426.00;;;15.65;100.00
17054;BME280;8643;48.824;11.422;2023-07-02T04:45:28;96437.22;;;15.76;100.00
17054;BME280;8643;48.824;11.422;2023-07-02T04:48:03;96443.19;;;15.85;100.00
17054;BME280;8643;48.824;11.422;2023-07-02T04:50:32;96439.47;;;16.04;100.00
17054;BME280;8643;48.824;11.422;2023-07-02T04:53:01;96441.88;;;16.09;100.00
17054;BME280;8643;48.824;11.422;2023-07-02T04:55:30;96443.44;;;16.07;100.00
17054;BME280;8643;48.824;11.422;2023-07-02T04:57:59;96447.03;;;16.15;100.00
17054;BME280;8643;48.824;11.422;2023-07-02T05:00:29;96446.91;;;16.00;100.00
17054;BME280;8643;48.824;11.422;2023-07-02T05:02:58;96453.69;;;16.10;100.00
17054;BME280;8643;48.824;11.422;2023-07-02T05:05:27;96461.00;;;16.29;100.00
17054;BME280;8643;48.824;11.422;2023-07-02T05:07:56;96461.88;;;16.40;100.00
17054;BME280;8643;48.824;11.422;2023-07-02T05:10:25;96449.69;;;16.45;100.00
17054;BME280;8643;48.824;11.422;2023-07-02T05:12:54;96456.53;;;16.65;100.00
17054;BME280;8643;48.824;11.422;2023-07-02T05:15:24;96454.31;;;16.82;100.00
17054;BME280;8643;48.824;11.422;2023-07-02T05:17:55;96464.19;;;16.83;100.00
17054;BME280;8643;48.824;11.422;2023-07-02T05:20:23;96459.50;;;16.87;100.00
17054;BME280;8643;48.824;11.422;2023-07-02T05:22:52;96462.47;;;16.64;100.00
17054;BME280;8643;48.824;11.422;2023-07-02T05:25:21;96465.03;;;16.42;100.00
17054;BME280;8643;48.824;11.422;2023-07-02T05:27:50;96475.50;;;16.67;100.00
17054;BME280;8643;48.824;11.422;2023-07-02T05:30:19;96481.97;;;16.82;100.00
17054;BME280;8643;48.824;11.422;2023-07-02T05:32:48;96487.78;;;16.70;100.00
17054;BME280;8643;48.824;11.422;2023-07-02T05:35:18;96478.59;;;16.58;100.00
17054;BME280;8643;48.824;11.422;2023-07-02T05:37:47;96478.94;;;16.49;100.00
17054;BME280;8643;48.824;11.422;2023-07-02T05:40:16;96483.50;;;16.31;100.00
17054;BME280;8643;48.824;11.422;2023-07-02T05:42:44;96488.97;;;16.24;100.00
17054;BME280;8643;48.824;11.422;2023-07-02T05:45:13;96480.56;;;16.13;100.00
17054;BME280;8643;48.824;11.422;2023-07-02T05:47:42;96495.75;;;16.30;100.00
17054;BME280;8643;48.824;11.422;2023-07-02T05:50:11;96491.06;;;16.38;100.00
17054;BME280;8643;48.824;11.422;2023-07-02T05:52:41;96496.47;;;16.23;100.00
17054;BME280;8643;48.824;11.422;2023-07-02T05:55:10;96498.75;;;16.18;100.00
17054;BME280;8643;48.824;11.422;2023-07-02T05:57:39;96504.25;;;16.14;100.00
17054;BME280;8643;48.824;11.422;2023-07-02T06:00:09;96510.59;;;16.18;100.00
17054;BME280;8643;48.824;11.422;2023-07-02T06:02:39;96507.50;;;16.23;100.00
17054;BME280;8643;48.824;11.422;2023-07-02T06:05:08;96512.19;;;16.19;100.00
17054;BME280;8643;48.824;11.422;2023-07-02T06:07:37;96510.81;;;16.40;100.00
17054;BME280;8643;48.824;11.422;2023-07-02T06:10:09;96520.94;;;16.25;100.00
17054;BME280;8643;48.824;11.422;2023-07-02T06:12:38;96518.19;;;16.25;100.00
17054;BME280;8643;48.824;11.422;2023-07-02T06:15:08;96524.22;;;16.38;100.00
17054;BME280;8643;48.824;11.422;2023-07-02T06:17:37;96529.19;;;16.62;100.00
17054;BME280;8643;48.824;11.422;2023-07-02T06:20:08;96516.34;;;16.40;100.00
17054;BME280;8643;48.824;11.422;2023-07-02T06:22:37;96527.81;;;16.42;100.00
17054;BME280;8643;48.824;11.422;2023-07-02T06:25:08;96521.13;;;16.43;100.00
17054;BME280;8643;48.824;11.422;2023-07-02T06:27:37;96533.28;;;16.35;100.00
17054;BME280;8643;48.824;11.422;2023-07-02T06:30:07;96541.31;;;16.13;100.00
17054;BME280;8643;48.824;11.422;2023-07-02T06:32:36;96539.31;;;16.10;100.00
17054;BME280;8643;48.824;11.422;2023-07-02T06:35:06;96540.50;;;16.09;100.00
17054;BME280;8643;48.824;11.422;2023-07-02T06:37:35;96543.75;;;16.18;100.00
17054;BME280;8643;48.824;11.422;2023-07-02T06:40:05;96540.19;;;16.18;100.00
17054;BME280;8643;48.824;11.422;2023-07-02T06:42:36;96540.88;;;16.07;100.00
17054;BME280;8643;48.824;11.422;2023-07-02T06:45:05;96545.38;;;16.23;100.00
17054;BME280;8643;48.824;11.422;2023-07-02T06:47:34;96550.13;;;16.22;100.00
17054;BME280;8643;48.824;11.422;2023-07-02T06:50:04;96555.75;;;15.96;100.00
17054;BME280;8643;48.824;11.422;2023-07-02T06:52:33;96561.56;;;15.90;100.00
17054;BME280;8643;48.824;11.422;2023-07-02T06:55:02;96566.22;;;15.83;100.00
17054;BME280;8643;48.824;11.422;2023-07-02T06:57:31;96567.38;;;15.82;100.00
17054;BME280;8643;48.824;11.422;2023-07-02T07:00:01;96568.38;;;15.66;100.00
17054;BME280;8643;48.824;11.422;2023-07-02T07:02:31;96562.88;;;15.70;100.00
17054;BME280;8643;48.824;11.422;2023-07-02T07:05:00;96564.72;;;15.89;100.00
17054;BME280;8643;48.824;11.422;2023-07-02T07:07:29;96564.72;;;16.23;100.00
17054;BME280;8643;48.824;11.422;2023-07-02T07:09:57;96551.44;;;16.36;100.00
17054;BME280;8643;48.824;11.422;2023-07-02T07:12:26;96558.63;;;16.44;100.00
17054;BME280;8643;48.824;11.422;2023-07-02T07:14:55;96559.53;;;16.55;100.00
17054;BME280;8643;48.824;11.422;2023-07-02T07:17:25;96557.28;;;16.72;100.00
17054;BME280;8643;48.824;11.422;2023-07-02T07:19:54;96550.94;;;17.12;100.00
17054;BME280;8643;48.824;11.422;2023-07-02T07:22:23;96563.06;;;16.93;100.00
17054;BME280;8643;48.824;11.422;2023-07-02T07:24:52;96562.81;;;16.68;100.00
17054;BME280;8643;48.824;11.422;2023-07-02T07:27:20;96558.78;;;16.62;100.00
17054;BME280;8643;48.824;11.422;2023-07-02T07:29:49;96553.38;;;16.76;100.00
17054;BME280;8643;48.824;11.422;2023-07-02T07:32:21;96567.09;;;16.65;98.79
17054;BME280;8643;48.824;11.422;2023-07-02T07:34:51;96558.53;;;16.78;100.00
17054;BME280;8643;48.824;11.422;2023-07-02T07:37:20;96558.34;;;16.97;96.85
17054;BME280;8643;48.824;11.422;2023-07-02T07:39:49;96552.09;;;17.08;96.06
17054;BME280;8643;48.824;11.422;2023-07-02T07:42:18;96554.03;;;17.00;97.17
17054;BME280;8643;48.824;11.422;2023-07-02T07:44:46;96554.78;;;16.97;95.05
17054;BME280;8643;48.824;11.422;2023-07-02T07:47:15;96559.75;;;16.80;96.21
17054;BME280;8643;48.824;11.422;2023-07-02T07:49:44;96558.91;;;16.73;97.23
17054;BME280;8643;48.824;11.422;2023-07-02T07:52:15;96565.28;;;16.80;96.79
17054;BME280;8643;48.824;11.422;2023-07-02T07:54:44;96559.56;;;17.00;96.25
17054;BME280;8643;48.824;11.422;2023-07-02T07:57:13;96567.41;;;16.98;95.90
17054;BME280;8643;48.824;11.422;2023-07-02T07:59:41;96562.84;;;17.20;96.94
17054;BME280;8643;48.824;11.422;2023-07-02T08:02:10;96558.41;;;17.67;94.09
17054;BME280;8643;48.824;11.422;2023-07-02T08:04:39;96563.34;;;18.06;90.77
17054;BME280;8643;48.824;11.422;2023-07-02T08:07:08;96561.84;;;18.41;88.24
17054;BME280;8643;48.824;11.422;2023-07-02T08:09:39;96568.25;;;18.74;87.09
17054;BME280;8643;48.824;11.422;2023-07-02T08:12:08;96569.09;;;19.03;84.61
17054;BME280;8643;48.824;11.422;2023-07-02T08:14:37;96568.97;;;19.86;84.00
17054;BME280;8643;48.824;11.422;2023-07-02T08:17:05;96559.44;;;19.87;79.85
17054;BME280;8643;48.824;11.422;2023-07-02T08:19:34;96562.56;;;20.04;77.48
17054;BME280;8643;48.824;11.422;2023-07-02T08:22:04;96578.06;;;19.98;78.23
17054;BME280;8643;48.824;11.422;2023-07-02T08:24:33;96559.56;;;19.33;84.24
17054;BME280;8643;48.824;11.422;2023-07-02T08:27:03;96565.84;;;19.52;78.98
17054;BME280;8643;48.824;11.422;2023-07-02T08:29:32;96569.81;;;19.62;79.96
17054;BME280;8643;48.824;11.422;2023-07-02T08:32:02;96568.28;;;19.24;80.56
17054;BME280;8643;48.824;11.422;2023-07-02T08:34:31;96576.63;;;19.03;82.27
17054;BME280;8643;48.824;11.422;2023-07-02T08:37:00;96567.06;;;19.54;81.20
17054;BME280;8643;48.824;11.422;2023-07-02T08:39:29;96567.09;;;19.36;81.08
17054;BME280;8643;48.824;11.422;2023-07-02T08:41:58;96572.25;;;19.05;82.61
17054;BME280;8643;48.824;11.422;2023-07-02T08:44:28;96576.13;;;18.58;83.93
17054;BME280;8643;48.824;11.422;2023-07-02T08:46:57;96572.94;;;18.41;86.55
17054;BME280;8643;48.824;11.422;2023-07-02T08:49:26;96566.25;;;18.57;85.04
17054;BME280;8643;48.824;11.422;2023-07-02T08:51:55;96567.44;;;18.56;80.26
17054;BME280;8643;48.824;11.422;2023-07-02T08:54:24;96569.88;;;18.90;77.71
17054;BME280;8643;48.824;11.422;2023-07-02T08:56:53;96578.22;;;19.04;74.52
17054;BME280;8643;48.824;11.422;2023-07-02T08:59:21;96575.03;;;19.05;74.38
17054;BME280;8643;48.824;11.422;2023-07-02T09:01:52;96575.44;;;18.86;73.31
17054;BME280;8643;48.824;11.422;2023-07-02T09:04:23;96569.88;;;18.90;74.35
17054;BME280;8643;48.824;11.422;2023-07-02T09:07:04;96570.69;;;19.15;74.32
17054;BME280;8643;48.824;11.422;2023-07-02T09:09:43;96581.38;;;19.17;72.51
17054;BME280;8643;48.824;11.422;2023-07-02T09:12:23;96579.78;;;19.16;72.93
17054;BME280;8643;48.824;11.422;2023-07-02T09:14:56;96584.03;;;20.00;70.75
17054;BME280;8643;48.824;11.422;2023-07-02T09:17:31;96579.72;;;19.66;69.68
17054;BME280;8643;48.824;11.422;2023-07-02T09:20:03;96592.06;;;19.40;71.42
17054;BME280;8643;48.824;11.422;2023-07-02T09:22:34;96583.69;;;20.68;69.20
17054;BME280;8643;48.824;11.422;2023-07-02T09:25:04;96582.69;;;20.33;70.09
17054;BME280;8643;48.824;11.422;2023-07-02T09:27:36;96577.84;;;21.56;67.93
17054;BME280;8643;48.824;11.422;2023-07-02T09:30:08;96564.06;;;21.38;67.17
17054;BME280;8643;48.824;11.422;2023-07-02T09:32:38;96574.22;;;22.32;62.67
17054;BME280;8643;48.824;11.422;2023-07-02T09:35:07;96574.56;;;22.92;59.30
17054;BME280;8643;48.824;11.422;2023-07-02T09:37:37;96583.00;;;21.58;62.07
17054;BME280;8643;48.824;11.422;2023-07-02T09:40:07;96571.38;;;22.01;60.09
17054;BME280;8643;48.824;11.422;2023-07-02T09:42:38;96568.56;;;22.66;57.68
17054;BME280;8643;48.824;11.422;2023-07-02T09:45:09;96571.09;;;22.26;57.46
17054;BME280;8643;48.824;11.422;2023-07-02T09:47:44;96578.81;;;21.77;59.83
17054;BME280;8643;48.824;11.422;2023-07-02T09:50:16;96571.44;;;21.14;60.26
17054;BME280;8643;48.824;11.422;2023-07-02T09:52:47;96573.25;;;21.35;59.99
17054;BME280;8643;48.824;11.422;2023-07-02T09:55:17;96574.19;;;21.63;61.25
17054;BME280;8643;48.824;11.422;2023-07-02T09:57:45;96572.59;;;22.89;57.23
17054;BME280;8643;48.824;11.422;2023-07-02T10:00:15;96561.19;;;23.54;54.53
17054;BME280;8643;48.824;11.422;2023-07-02T10:02:49;96562.13;;;22.97;53.30
17054;BME280;8643;48.824;11.422;2023-07-02T10:05:26;96570.88;;;22.72;52.71
17054;BME280;8643;48.824;11.422;2023-07-02T10:07:56;96558.47;;;22.14;54.09
17054;BME280;8643;48.824;11.422;2023-07-02T10:10:27;96565.81;;;22.01;54.75
17054;BME280;8643;48.824;11.422;2023-07-02T10:12:57;96560.56;;;23.43;50.73
17054;BME280;8643;48.824;11.422;2023-07-02T10:15:27;96564.84;;;24.72;47.91
17054;BME280;8643;48.824;11.422;2023-07-02T10:18:03;96560.72;;;24.20;48.39
17054;BME280;8643;48.824;11.422;2023-07-02T10:20:33;96567.03;;;22.62;52.37
17054;BME280;8643;48.824;11.422;2023-07-02T10:23:03;96562.13;;;22.97;50.85
17054;BME280;8643;48.824;11.422;2023-07-02T10:25:34;96560.41;;;23.30;52.26
17054;BME280;8643;48.824;11.422;2023-07-02T10:28:14;96563.97;;;24.18;49.20
17054;BME280;8643;48.824;11.422;2023-07-02T10:30:43;96565.81;;;24.81;48.88
17054;BME280;8643;48.824;11.422;2023-07-02T10:33:15;96563.06;;;24.41;45.44
17054;BME280;8643;48.824;11.422;2023-07-02T10:35:46;96566.28;;;22.27;50.63
17054;BME280;8643;48.824;11.422;2023-07-02T10:38:20;96562.69;;;22.30;52.99
17054;BME280;8643;48.824;11.422;2023-07-02T10:40:56;96550.16;;;21.76;50.40
17054;BME280;8643;48.824;11.422;2023-07-02T10:43:25;96559.91;;;21.57;51.63
17054;BME280;8643;48.824;11.422;2023-07-02T10:45:57;96560.84;;;22.47;49.70
17054;BME280;8643;48.824;11.422;2023-07-02T10:48:29;96561.19;;;23.54;47.47
17054;BME280;8643;48.824;11.422;2023-07-02T10:50:58;96554.53;;;24.48;46.87
17054;BME280;8643;48.824;11.422;2023-07-02T10:53:27;96561.19;;;25.07;45.77
17054;BME280;8643;48.824;11.422;2023-07-02T10:55:56;96549.13;;;25.11;41.44
17054;BME280;8643;48.824;11.422;2023-07-02T10:58:27;96552.13;;;25.36;43.83
17054;BME280;8643;48.824;11.422;2023-07-02T11:00:56;96554.38;;;25.09;43.21
17054;BME280;8643;48.824;11.422;2023-07-02T11:03:28;96554.53;;;25.18;43.68
17054;BME280;8643;48.824;11.422;2023-07-02T11:05:58;96553.59;;;25.87;43.21
17054;BME280;8643;48.824;11.422;2023-07-02T11:08:35;96562.66;;;25.61;41.07
17054;BME280;8643;48.824;11.422;2023-07-02T11:11:06;96556.50;;;25.67;42.62
17054;BME280;8643;48.824;11.422;2023-07-02T11:13:44;96555.22;;;26.01;41.57
17054;BME280;8643;48.824;11.422;2023-07-02T11:16:22;96540.91;;;25.36;40.42
17054;BME280;8643;48.824;11.422;2023-07-02T11:19:07;96557.09;;;25.12;43.15
17054;BME280;8643;48.824;11.422;2023-07-02T11:21:36;96546.47;;;25.98;46.18
17054;BME280;8643;48.824;11.422;2023-07-02T11:24:06;96558.16;;;26.52;40.29
17054;BME280;8643;48.824;11.422;2023-07-02T11:26:36;96549.31;;;26.79;40.02
17054;BME280;8643;48.824;11.422;2023-07-02T11:29:10;96550.16;;;26.38;38.59
17054;BME280;8643;48.824;11.422;2023-07-02T11:31:39;96552.75;;;26.58;39.24
17054;BME280;8643;48.824;11.422;2023-07-02T11:34:17;96552.91;;;26.93;38.61
17054;BME280;8643;48.824;11.422;2023-07-02T11:36:48;96551.16;;;26.44;37.89
17054;BME280;8643;48.824;11.422;2023-07-02T11:39:17;96554.00;;;26.82;38.81
17054;BME280;8643;48.824;11.422;2023-07-02T11:41:47;96550.88;;;27.06;38.25
17054;BME280;8643;48.824;11.422;2023-07-02T11:44:16;96551.53;;;27.10;37.41
17054;BME280;8643;48.824;11.422;2023-07-02T11:46:46;96540.31;;;26.97;37.45
17054;BME280;8643;48.824;11.422;2023-07-02T11:49:17;96543.13;;;26.97;38.16
17054;BME280;8643;48.824;11.422;2023-07-02T11:51:45;96539.94;;;27.21;37.60
17054;BME280;8643;48.824;11.422;2023-07-02T11:54:16;96542.16;;;27.26;40.18
17054;BME280;8643;48.824;11.422;2023-07-02T11:56:46;96534.66;;;27.23;37.87
17054;BME280;8643;48.824;11.422;2023-07-02T11:59:14;96541.28;;;27.42;35.83
17054;BME280;8643;48.824;11.422;2023-07-02T12:01:43;96547.59;;;27.33;36.38
17054;BME280;8643;48.824;11.422;2023-07-02T12:04:12;96533.53;;;27.33;37.20
17054;BME280;8643;48.824;11.422;2023-07-02T12:06:43;96547.00;;;27.51;37.22
17054;BME280;8643;48.824;11.422;2023-07-02T12:09:11;96540.09;;;26.66;39.00
17054;BME280;8643;48.824;11.422;2023-07-02T12:11:40;96536.06;;;26.93;38.31
17054;BME280;8643;48.824;11.422;2023-07-02T12:14:09;96530.59;;;27.24;36.93
17054;BME280;8643;48.824;11.422;2023-07-02T12:16:37;96527.59;;;27.66;36.62
17054;BME280;8643;48.824;11.422;2023-07-02T12:19:06;96531.81;;;27.49;37.13
17054;BME280;8643;48.824;11.422;2023-07-02T12:21:34;96531.84;;;27.36;37.71
17054;BME280;8643;48.824;11.422;2023-07-02T12:24:05;96531.19;;;27.32;38.18
17054;BME280;8643;48.824;11.422;2023-07-02T12:26:36;96532.81;;;27.77;37.30
17054;BME280;8643;48.824;11.422;2023-07-02T12:29:05;96527.38;;;27.60;35.74
17054;BME280;8643;48.824;11.422;2023-07-02T12:31:34;96523.88;;;27.69;38.07
17054;BME280;8643;48.824;11.422;2023-07-02T12:34:03;96508.81;;;27.63;36.82
17054;BME280;8643;48.824;11.422;2023-07-02T12:36:32;96510.03;;;27.97;36.39
17054;BME280;8643;48.824;11.422;2023-07-02T12:39:01;96515.88;;;27.68;37.03
17054;BME280;8643;48.824;11.422;2023-07-02T12:41:31;96508.56;;;27.92;37.29
17054;BME280;8643;48.824;11.422;2023-07-02T12:44:00;96527.25;;;27.86;35.07
17054;BME280;8643;48.824;11.422;2023-07-02T12:46:29;96513.13;;;26.81;37.55
17054;BME280;8643;48.824;11.422;2023-07-02T12:48:58;96521.22;;;27.53;36.68
17054;BME280;8643;48.824;11.422;2023-07-02T12:51:26;96518.19;;;27.47;35.81
17054;BME280;8643;48.824;11.422;2023-07-02T12:53:54;96518.06;;;27.86;35.72
17054;BME280;8643;48.824;11.422;2023-07-02T12:56:24;96522.59;;;28.05;36.25
17054;BME280;8643;48.824;11.422;2023-07-02T12:58:54;96516.06;;;27.51;36.26
17054;BME280;8643;48.824;11.422;2023-07-02T13:01:23;96504.09;;;26.35;38.42
17054;BME280;8643;48.824;11.422;2023-07-02T13:03:52;96501.91;;;26.01;39.55
17054;BME280;8643;48.824;11.422;2023-07-02T13:06:21;96506.91;;;26.35;39.28
17054;BME280;8643;48.824;11.422;2023-07-02T13:08:50;96505.44;;;26.18;38.66